Terminal Aerodrome Forecast
Issued by NWS

Home | Current Version | Previous Version | Text Only | Print | Product List | Glossary On
Versions: 1 2 3 4 5 6 7 8 9 10 11 12 13 14 15 16 17 18 19 20 21 22 23 24 25 26 27 28
000
FTAK31 PANC 170806 AAA
TAFAHO
TAF AMD
PAHO 170806Z 1708/1806 25018G25KT 3SM -SHSN OVC020
      TEMPO 1708/1712 1SM -SHSN BLSN
     FM171200 27012KT 4SM -SHSN SCT020 BKN030
     FM171500 32007KT P6SM VCSH SCT025 BKN045
     FM171800 04005KT P6SM SCT045=

USA.gov is the U.S. government's official web portal to all federal, state and local government web resources and services.